Sponsor www.jackysshop.nl


METAR rapporten vliegvelden

   
EBAW - Antwerp
Gewijzigd: 16-02-2019 22:20
Helder  
Helder  
   Wind: ZO 5.6 km/h
Wind: ZO 5.6 km/h
Temperatuur: 2°C
Voelt als: 1°C
Dauwpunt: 0°C
Vochtigheid: 87%
Barometer: 1024 hPa
Zicht: meer dan 10 km
Bewolking: Helder
EBAW 162120Z 14003KT CAVOK 02/00 Q1024 NOSIG
EBLG - Li├Ęge
Gewijzigd: 16-02-2019 22:20
Helder  
Helder  
   Wind: ZZO 9.3 km/h
Wind: ZZO 9.3 km/h
Temperatuur: 9°C
Voelt als: 8°C
Dauwpunt: 0°C
Vochtigheid: 54%
Barometer: 1025 hPa
Zicht: meer dan 10 km
Bewolking: Helder
EBLG 162120Z 16005KT CAVOK 09/00 Q1025 NOSIG
EBCV - Mons/Bergen
Gewijzigd: 16-02-2019 22:25
Licht bewolkt  
Licht bewolkt  
   Wind: Zuiden 11.1 km/h
Wind: Zuiden 11.1 km/h
Temperatuur: 6°C
Voelt als: 4°C
Dauwpunt: 2°C
Vochtigheid: 76%
Barometer: 1025 hPa
Bewolking: Licht bewolkt
Zicht: meer dan 10 km
Bewolking: Licht bewolkt 25000 ft
EBCV 162125Z AUTO 17006KT 9999 FEW250/// 06/02 Q1025 BLU
EHBK - Maastricht
Gewijzigd: 16-02-2019 22:25
Gedeeltelijk bewolkt  
Gedeeltelijk bewolkt  
   Wind: Zuiden 9.3 km/h
Wind: Zuiden 9.3 km/h
Temperatuur: 7°C
Voelt als: 5°C
Dauwpunt: 1°C
Vochtigheid: 66%
Barometer: 1024 hPa
Bewolking: Gedeeltelijk bewolkt
Zicht: meer dan 10 km
Bewolking: Gedeeltelijk bewolkt
EHBK 162125Z AUTO 18005KT 150V210 9999 NSC 07/01 Q1024 NOSIG
ELLX - Luxemburg
Gewijzigd: 16-02-2019 22:20
Helder  
Helder  
   Wind: OZO 3.7 km/h
Wind: OZO 3.7 km/h
Temperatuur: 9°C
Dauwpunt: 2°C
Vochtigheid: 62%
Barometer: 1025 hPa
Zicht: meer dan 10 km
Bewolking: Helder
ELLX 162120Z 12002KT CAVOK 09/02 Q1025 NOSIG
EBOS - Oostende
Gewijzigd: 16-02-2019 22:20
Gedeeltelijk bewolkt  
Gedeeltelijk bewolkt  
   Wind: ZO 3.7 km/h
Wind: ZO 3.7 km/h
Temperatuur: 5°C
Dauwpunt: 3°C
Vochtigheid: 87%
Barometer: 1024 hPa
Bewolking: Gedeeltelijk bewolkt
Zicht: 7 km
Bewolking: Gedeeltelijk bewolkt
EBOS 162120Z 14002KT 7000 NSC 05/03 Q1024 NOSIG

Script ontwikkeld door  Saratoga-weather.org Aangepast voor de template door  Weerstation Leuven